Time;durP1;ratioP1;P1;durP2;ratioP2;P2;SDS_P1;SDS_P2;PMS_P1;PMS_P2;Temp;Humidity;BMP_temperature;BMP_pressure;BME280_temperature;BME280_humidity;BME280_pressure;Samples;Min_cycle;Max_cycle;Signal;HPM_P1;HPM_P2
2022/12/04 00:00:20;;;;;;;5.30;4.80;;;;;;;19.52;47.22;97000.19;4962636;28;20286;-93
2022/12/04 00:02:46;;;;;;;5.27;4.77;;;;;;;19.48;47.30;96977.13;4977093;28;20187;-95
2022/12/04 00:05:13;;;;;;;5.47;4.97;;;;;;;19.19;47.35;96939.72;4974240;28;20219;-93
2022/12/04 00:07:40;;;;;;;5.47;4.97;;;;;;;19.33;47.54;96954.59;4971455;28;20232;-93
2022/12/04 00:10:07;;;;;;;5.37;4.87;;;;;;;19.53;47.46;96990.84;4992783;28;20186;-93
2022/12/04 00:12:34;;;;;;;5.53;5.03;;;;;;;19.43;47.43;96971.03;4973177;28;20262;-94
2022/12/04 00:15:01;;;;;;;5.43;4.93;;;;;;;19.45;47.61;96987.22;5006859;28;20207;-92
2022/12/04 00:17:48;;;;;;;6.13;5.53;;;;;;;19.20;47.59;96931.25;4981946;28;20190;-94
2022/12/04 00:20:14;;;;;;;5.37;4.87;;;;;;;19.47;47.31;96957.53;4993326;28;20205;-94
2022/12/04 00:22:41;;;;;;;6.43;5.83;;;;;;;19.73;47.17;97010.13;4980302;28;20194;-93
2022/12/04 00:25:08;;;;;;;5.27;4.77;;;;;;;19.01;47.36;96870.41;4993335;28;20244;-94
2022/12/04 00:27:34;;;;;;;6.20;5.60;;;;;;;19.91;47.87;97033.59;4980850;28;20271;-94
2022/12/04 00:30:01;;;;;;;5.33;4.83;;;;;;;19.37;48.22;96930.94;4992819;28;20191;-93
2022/12/04 00:32:28;;;;;;;6.10;5.60;;;;;;;20.40;47.73;97108.09;4992742;28;20247;-93
2022/12/04 00:34:55;;;;;;;5.90;5.30;;;;;;;18.73;47.29;96825.47;4962521;28;20180;-93
2022/12/04 00:37:22;;;;;;;6.03;5.43;;;;;;;18.93;47.57;96872.75;4974583;28;20190;-93
2022/12/04 00:39:48;;;;;;;5.90;5.30;;;;;;;19.90;47.62;97029.31;4988932;28;20187;-93
2022/12/04 00:42:15;;;;;;;5.87;5.27;;;;;;;19.80;47.52;97005.25;4978483;28;20210;-94
2022/12/04 00:44:41;;;;;;;5.07;4.57;;;;;;;19.60;47.55;96990.22;4981027;28;20188;-94
2022/12/04 00:47:08;;;;;;;5.00;4.60;;;;;;;18.96;47.39;96883.03;4994216;28;20211;-93
2022/12/04 00:49:34;;;;;;;5.37;4.93;;;;;;;19.31;47.40;96942.66;4992915;28;20210;-94
2022/12/04 00:52:01;;;;;;;5.40;4.90;;;;;;;19.60;47.55;96997.88;4997556;28;20207;-93
2022/12/04 00:54:28;;;;;;;5.53;5.03;;;;;;;19.89;47.35;97038.63;4980299;28;20230;-94
2022/12/04 00:56:54;;;;;;;4.73;4.30;;;;;;;19.49;47.29;96964.44;4983470;28;20176;-90
2022/12/04 00:59:21;;;;;;;4.80;4.30;;;;;;;19.85;46.96;97038.50;4997868;28;20187;-93
2022/12/04 01:01:47;;;;;;;5.07;4.63;;;;;;;19.92;47.49;97041.28;4984367;28;20216;-94
2022/12/04 01:04:14;;;;;;;5.73;4.93;;;;;;;19.51;47.60;96975.50;4979438;28;20199;-94
2022/12/04 01:06:40;;;;;;;4.97;4.50;;;;;;;19.85;47.57;97038.50;4976966;28;20188;-94
2022/12/04 01:09:07;;;;;;;5.20;4.70;;;;;;;19.30;47.36;96929.03;4997905;28;20192;-93
2022/12/04 01:11:34;;;;;;;5.60;5.10;;;;;;;19.47;47.71;96973.69;4995786;28;20207;-95
2022/12/04 01:14:01;;;;;;;5.00;4.50;;;;;;;19.45;47.48;96970.22;4979269;28;20231;-94
2022/12/04 01:16:36;;;;;;;5.23;4.73;;;;;;;19.18;47.48;96917.59;4988254;28;20187;-94
2022/12/04 01:19:04;;;;;;;5.20;4.70;;;;;;;19.84;47.54;97039.34;4995656;28;20229;-93
2022/12/04 01:21:30;;;;;;;5.27;4.80;;;;;;;19.38;47.48;96953.06;4980263;28;20199;-94
2022/12/04 01:23:57;;;;;;;5.50;5.00;;;;;;;19.88;47.51;97024.16;4965254;28;20221;-94
2022/12/04 01:26:24;;;;;;;5.20;4.70;;;;;;;18.97;47.56;96869.47;4997486;28;20183;-94
2022/12/04 01:28:51;;;;;;;5.37;4.87;;;;;;;19.90;47.57;97031.88;4965012;28;20215;-91
2022/12/04 01:31:18;;;;;;;5.53;5.03;;;;;;;19.49;47.62;96945.72;4966970;28;20240;-93
2022/12/04 01:33:45;;;;;;;5.03;4.53;;;;;;;19.71;47.52;96988.81;4981282;28;20214;-94
2022/12/04 01:36:15;;;;;;;5.17;4.67;;;;;;;19.84;47.68;97016.41;4980727;28;20188;-93
2022/12/04 01:38:41;;;;;;;4.73;4.33;;;;;;;18.88;47.30;96851.38;4990189;28;20185;-94
2022/12/04 01:41:14;;;;;;;5.23;4.73;;;;;;;19.46;47.43;96941.41;4996967;28;20212;-93
2022/12/04 01:43:41;;;;;;;5.03;4.53;;;;;;;19.94;47.51;97026.00;4977261;28;20230;-95
2022/12/04 01:46:07;;;;;;;4.90;4.50;;;;;;;19.45;47.41;96951.56;4983160;28;20255;-93
2022/12/04 01:48:36;;;;;;;5.50;5.00;;;;;;;20.41;47.40;97112.41;4992651;28;20184;-94
2022/12/04 01:51:14;;;;;;;5.67;5.13;;;;;;;20.41;47.50;97120.06;4983006;28;20235;-92
2022/12/04 01:53:41;;;;;;;5.47;4.97;;;;;;;20.18;47.72;97082.84;4992308;28;20218;-94
2022/12/04 01:56:08;;;;;;;5.53;5.03;;;;;;;19.93;47.38;97049.81;4997958;28;20180;-94
2022/12/04 01:58:38;;;;;;;5.33;4.83;;;;;;;19.73;47.50;97013.53;4977141;28;20188;-93
2022/12/04 02:01:05;;;;;;;5.17;4.77;;;;;;;18.98;47.36;96877.97;4972596;28;20204;-93
2022/12/04 02:03:35;;;;;;;4.90;4.50;;;;;;;19.22;47.40;96933.00;4984275;28;20211;-94
2022/12/04 02:06:01;;;;;;;5.77;5.17;;;;;;;18.99;47.26;96890.75;4979993;28;20205;-94
2022/12/04 02:08:28;;;;;;;5.47;4.87;;;;;;;19.92;47.42;97043.81;4979908;28;20202;-94
2022/12/04 02:11:10;;;;;;;5.23;4.73;;;;;;;20.42;47.53;97108.16;4965009;28;20204;-93
2022/12/04 02:13:44;;;;;;;5.30;4.80;;;;;;;20.41;47.41;97104.75;5010965;28;20298;-94
2022/12/04 02:16:35;;;;;;;5.60;5.10;;;;;;;20.42;47.45;97093.72;4992493;28;20247;-92
2022/12/04 02:19:06;;;;;;;5.17;4.67;;;;;;;19.11;47.53;96868.19;4977150;28;20226;-91
2022/12/04 02:21:40;;;;;;;5.10;4.60;;;;;;;18.94;47.56;96843.91;4989747;28;20210;-95
2022/12/04 02:24:32;;;;;;;5.17;4.67;;;;;;;20.40;47.66;97097.06;4981764;28;20261;-93
2022/12/04 02:27:04;;;;;;;5.83;5.00;;;;;;;19.20;47.64;96891.34;4998555;28;20194;-94
2022/12/04 02:29:41;;;;;;;4.60;4.20;;;;;;;20.41;47.32;97092.00;4976466;28;20199;-93
2022/12/04 02:32:14;;;;;;;5.40;4.90;;;;;;;20.41;47.51;97076.69;5009590;28;20223;-93
2022/12/04 02:34:49;;;;;;;5.50;5.00;;;;;;;20.41;47.29;97078.34;5010623;28;20322;-93
2022/12/04 02:37:21;;;;;;;5.60;5.10;;;;;;;19.98;47.46;97010.84;4993758;28;20258;-94
2022/12/04 02:39:58;;;;;;;5.67;5.17;;;;;;;19.89;47.46;97007.16;4981681;28;20192;-93
2022/12/04 02:42:51;;;;;;;5.00;4.50;;;;;;;19.29;47.69;96903.50;4997671;28;20200;-93
2022/12/04 02:45:45;;;;;;;5.80;5.23;;;;;;;18.99;47.46;96826.22;4995956;28;20191;-93
2022/12/04 02:48:17;;;;;;;5.93;5.33;;;;;;;20.07;47.40;97014.47;4970727;28;20187;-93
2022/12/04 02:50:44;;;;;;;5.30;4.80;;;;;;;19.01;47.29;96822.88;4988098;28;20232;-94
2022/12/04 02:53:13;;;;;;;5.53;5.03;;;;;;;19.92;47.31;96991.94;4994459;28;20207;-94
2022/12/04 02:55:49;;;;;;;4.97;4.47;;;;;;;19.79;47.38;96961.84;4995714;28;20194;-94
2022/12/04 02:58:38;;;;;;;5.60;5.10;;;;;;;19.21;47.48;96848.91;4981238;28;20258;-93
2022/12/04 03:01:18;;;;;;;5.43;4.93;;;;;;;18.75;47.35;96772.94;4998105;28;20213;-92
2022/12/04 03:03:59;;;;;;;5.33;4.83;;;;;;;19.29;47.46;96878.03;4963557;28;20230;-94
2022/12/04 03:06:27;;;;;;;5.77;5.17;;;;;;;19.28;47.26;96876.31;4996017;28;20191;-94
2022/12/04 03:09:03;;;;;;;4.97;4.50;;;;;;;19.09;47.32;96821.41;4963396;28;20204;-93
2022/12/04 03:11:30;;;;;;;5.67;5.13;;;;;;;19.21;47.27;96852.31;5000706;28;20202;-94
2022/12/04 03:14:00;;;;;;;5.47;4.97;;;;;;;18.98;47.37;96806.69;4960904;28;20238;-93
2022/12/04 03:16:30;;;;;;;5.20;4.70;;;;;;;20.41;47.42;97047.72;4985576;28;20191;-94
2022/12/04 03:19:02;;;;;;;5.60;5.10;;;;;;;19.63;47.48;96937.63;4993481;28;20225;-94
2022/12/04 03:21:31;;;;;;;4.80;4.40;;;;;;;19.81;47.68;96961.06;4977900;28;20255;-92
2022/12/04 03:24:43;;;;;;;5.77;4.80;;;;;;;20.41;47.45;97042.63;4979225;28;20255;-94
2022/12/04 03:27:37;;;;;;;6.00;4.80;;;;;;;19.73;47.42;96937.06;4980558;28;20198;-93
2022/12/04 03:30:05;;;;;;;4.90;4.50;;;;;;;19.89;47.48;96954.50;4977518;28;20179;-93
2022/12/04 03:32:42;;;;;;;5.40;4.90;;;;;;;19.00;47.41;96795.69;4993429;28;20183;-93
2022/12/04 03:35:28;;;;;;;5.17;4.67;;;;;;;20.04;47.38;96965.94;4976074;28;20234;-93
2022/12/04 03:37:59;;;;;;;5.17;4.67;;;;;;;19.51;47.39;96870.19;4992852;28;20250;-94
2022/12/04 03:40:40;;;;;;;5.30;4.80;;;;;;;20.39;47.39;97023.84;4992759;28;20242;-94
2022/12/04 03:43:13;;;;;;;5.30;4.80;;;;;;;20.40;47.46;97023.03;4976787;28;20193;-93
2022/12/04 03:45:55;;;;;;;5.40;4.90;;;;;;;19.34;47.52;96857.00;4993007;28;20194;-93
2022/12/04 03:48:40;;;;;;;5.27;4.77;;;;;;;19.66;47.21;96924.97;4950534;28;20207;-93
2022/12/04 03:51:13;;;;;;;6.10;5.50;;;;;;;20.40;47.57;97023.03;4963327;28;20209;-94
2022/12/04 03:53:48;;;;;;;5.47;4.97;;;;;;;20.40;47.51;97029.00;5006306;28;20214;-93
2022/12/04 03:56:17;;;;;;;5.33;4.87;;;;;;;19.44;47.53;96868.28;4959027;28;20192;-93
2022/12/04 03:58:46;;;;;;;6.40;5.70;;;;;;;19.19;47.38;96846.31;4974561;28;20226;-95
2022/12/04 04:01:13;;;;;;;6.33;5.73;;;;;;;20.37;47.29;97025.50;4976729;28;20213;-94
2022/12/04 04:03:43;;;;;;;5.87;5.27;;;;;;;19.00;47.66;96788.06;4962654;28;20214;-94
2022/12/04 04:06:12;;;;;;;6.10;5.47;;;;;;;19.54;47.36;96898.28;4978801;28;20187;-94
2022/12/04 04:08:40;;;;;;;5.73;5.13;;;;;;;19.33;47.47;96867.13;4979036;28;20210;-94
2022/12/04 04:11:19;;;;;;;5.77;5.07;;;;;;;19.44;47.40;96881.00;4980385;28;20207;-93
2022/12/04 04:25:13;;;;;;;6.23;5.57;;;;;;;19.91;47.47;96950.31;5000139;28;20201;-93
2022/12/04 04:27:40;;;;;;;5.53;5.03;;;;;;;19.41;47.47;96875.81;4980931;28;20188;-95
2022/12/04 04:30:08;;;;;;;5.27;4.77;;;;;;;20.13;47.25;97007.00;4994313;28;20271;-94
2022/12/04 04:32:41;;;;;;;5.93;5.33;;;;;;;19.62;47.38;96901.88;4974499;28;20184;-94
2022/12/04 04:35:10;;;;;;;5.47;4.97;;;;;;;20.39;47.56;97034.06;4979477;28;20230;-93
2022/12/04 04:37:46;;;;;;;5.90;5.30;;;;;;;19.88;47.58;96940.03;4978842;28;20317;-93
2022/12/04 04:40:17;;;;;;;5.90;5.30;;;;;;;19.89;47.38;96961.25;4997494;28;20262;-93
2022/12/04 04:42:56;;;;;;;5.83;5.27;;;;;;;20.39;47.41;97026.41;4988588;28;20231;-94
2022/12/04 04:45:26;;;;;;;5.50;4.97;;;;;;;19.33;47.44;96860.34;4982503;28;20339;-94
2022/12/04 04:47:59;;;;;;;5.93;5.20;;;;;;;19.44;47.57;96871.69;4958641;28;20184;-94
2022/12/04 04:50:25;;;;;;;5.73;5.20;;;;;;;19.47;47.50;96868.34;5003250;28;20542;-94
2022/12/04 04:52:54;;;;;;;5.90;5.30;;;;;;;18.99;47.26;96796.53;4977602;28;20186;-94
2022/12/04 04:55:21;;;;;;;5.70;5.10;;;;;;;20.39;47.49;97011.97;4968048;28;20215;-93
2022/12/04 04:57:47;;;;;;;5.97;5.40;;;;;;;19.27;47.28;96831.31;4992380;28;20203;-94
2022/12/04 05:00:22;;;;;;;5.80;5.20;;;;;;;18.99;47.37;96800.75;4979555;28;20242;-93
2022/12/04 05:02:49;;;;;;;5.70;5.20;;;;;;;20.39;47.42;97034.94;4968900;28;20203;-94
2022/12/04 05:05:16;;;;;;;5.73;5.23;;;;;;;19.62;47.35;96886.59;4981042;28;20198;-94
2022/12/04 05:07:42;;;;;;;6.30;5.70;;;;;;;19.36;47.47;96839.19;4967791;28;20191;-93
2022/12/04 05:10:09;;;;;;;6.13;5.53;;;;;;;19.41;47.45;96852.91;5010852;28;20227;-94
2022/12/04 05:12:36;;;;;;;5.70;5.20;;;;;;;19.04;47.34;96778.84;4995759;28;20193;-94
2022/12/04 05:15:03;;;;;;;5.33;4.83;;;;;;;19.24;47.25;96824.38;4993505;28;20211;-93
2022/12/04 05:17:29;;;;;;;5.60;5.03;;;;;;;19.95;47.95;96958.88;4995872;28;20214;-92
2022/12/04 05:19:56;;;;;;;5.90;5.30;;;;;;;19.86;47.01;96931.47;4963605;28;20190;-95
2022/12/04 05:22:29;;;;;;;5.93;5.33;;;;;;;19.41;47.20;96863.09;4981975;28;20183;-94
2022/12/04 05:24:55;;;;;;;5.53;5.03;;;;;;;20.39;47.17;97028.94;4984591;28;20186;-94
2022/12/04 05:27:22;;;;;;;5.53;5.03;;;;;;;20.37;47.28;97026.34;4995575;28;20198;-94
2022/12/04 05:29:51;;;;;;;5.83;5.23;;;;;;;19.22;47.40;96841.31;4977759;28;20211;-92
2022/12/04 05:32:19;;;;;;;4.87;4.43;;;;;;;20.13;47.47;96989.16;4983130;28;20210;-94
2022/12/04 05:34:52;;;;;;;5.20;4.70;;;;;;;19.45;47.33;96883.59;4994593;28;20234;-90
2022/12/04 05:37:19;;;;;;;5.50;5.00;;;;;;;18.95;47.23;96814.22;4967926;28;20207;-94
2022/12/04 05:39:45;;;;;;;5.07;4.57;;;;;;;20.13;47.19;97004.47;4993818;28;20218;-95
2022/12/04 05:42:12;;;;;;;5.70;5.17;;;;;;;18.93;47.46;96798.91;4994049;28;20235;-94
2022/12/04 05:44:39;;;;;;;5.70;5.10;;;;;;;19.62;47.51;96917.19;4962984;28;20195;-94
2022/12/04 05:47:05;;;;;;;5.93;5.33;;;;;;;19.64;47.44;96918.97;4973982;28;20208;-94
2022/12/04 05:49:33;;;;;;;5.80;5.20;;;;;;;18.96;47.31;96806.63;4966893;28;20198;-93
2022/12/04 05:52:00;;;;;;;5.50;5.00;;;;;;;19.86;47.26;96944.22;4962059;28;20214;-93
2022/12/04 05:54:27;;;;;;;5.40;4.90;;;;;;;19.78;47.02;96916.78;4964587;28;20242;-94
2022/12/04 05:56:54;;;;;;;5.60;5.03;;;;;;;19.47;47.48;96868.34;4993684;28;20187;-94
2022/12/04 05:59:20;;;;;;;5.23;4.70;;;;;;;19.50;47.30;96869.31;4975545;28;20192;-94
2022/12/04 06:01:47;;;;;;;5.87;5.27;;;;;;;19.03;47.17;96798.34;4997146;28;20217;-92
2022/12/04 06:04:13;;;;;;;5.97;5.40;;;;;;;20.12;47.10;96993.34;4997210;28;20206;-92
2022/12/04 06:06:40;;;;;;;5.33;4.83;;;;;;;19.82;47.65;96934.75;4996761;28;20194;-92
2022/12/04 06:09:08;;;;;;;5.40;4.90;;;;;;;19.58;47.26;96898.41;4997550;28;20202;-93
2022/12/04 06:11:36;;;;;;;5.70;5.20;;;;;;;19.58;47.29;96923.91;4975714;28;20203;-92
2022/12/04 06:14:04;;;;;;;5.07;4.60;;;;;;;18.73;47.21;96774.56;4979430;28;20243;-92
2022/12/04 06:16:33;;;;;;;5.77;5.17;;;;;;;19.62;47.27;96937.56;4992332;28;20188;-92
2022/12/04 06:19:02;;;;;;;6.07;5.47;;;;;;;20.31;47.30;97045.78;4979413;28;20219;-92
2022/12/04 06:21:30;;;;;;;5.17;4.67;;;;;;;20.13;47.26;97015.50;4977795;28;20296;-92
2022/12/04 06:23:56;;;;;;;5.90;5.30;;;;;;;19.41;47.37;96879.25;4982462;28;20258;-91
2022/12/04 06:26:23;;;;;;;5.77;5.17;;;;;;;19.13;47.31;96841.03;4977332;28;20255;-92
2022/12/04 06:28:57;;;;;;;5.37;4.87;;;;;;;18.91;47.07;96789.47;4990024;28;20199;-93
2022/12/04 06:31:24;;;;;;;5.23;4.73;;;;;;;19.25;47.36;96855.81;4984948;28;20231;-91
2022/12/04 06:33:54;;;;;;;6.00;5.40;;;;;;;18.75;47.29;96764.44;4991716;28;20215;-91
2022/12/04 06:36:21;;;;;;;5.57;5.07;;;;;;;19.79;47.46;96939.78;4974720;28;20215;-92
2022/12/04 06:38:48;;;;;;;5.57;4.97;;;;;;;19.49;47.60;96889.66;4989911;28;20211;-93
2022/12/04 06:41:17;;;;;;;5.30;4.80;;;;;;;19.74;47.25;96931.13;4998157;28;20337;-92
2022/12/04 06:43:44;;;;;;;5.53;5.03;;;;;;;20.39;47.36;97039.16;5006973;28;20179;-93
2022/12/04 06:46:12;;;;;;;4.87;4.40;;;;;;;19.75;47.51;96927.75;5008134;28;20192;-92
2022/12/04 06:48:39;;;;;;;5.50;5.00;;;;;;;20.32;47.49;97017.75;4993460;28;20223;-92
2022/12/04 06:51:06;;;;;;;5.17;4.67;;;;;;;20.39;47.52;97018.75;4976319;28;20291;-91
2022/12/04 06:53:33;;;;;;;5.17;4.67;;;;;;;19.72;47.24;96904.72;5011768;28;20192;-90
2022/12/04 06:56:02;;;;;;;5.33;4.83;;;;;;;19.73;47.24;96898.81;4960971;28;20213;-93
2022/12/04 06:58:28;;;;;;;4.60;4.20;;;;;;;19.18;47.27;96808.94;4977346;28;20203;-92
2022/12/04 07:00:55;;;;;;;5.13;4.60;;;;;;;19.25;47.38;96825.25;4974259;28;20231;-92
2022/12/04 07:03:22;;;;;;;5.00;4.50;;;;;;;19.22;47.32;96831.13;4978531;28;20259;-91
2022/12/04 07:05:49;;;;;;;5.60;5.00;;;;;;;19.99;47.39;96956.44;4991371;28;20218;-93
2022/12/04 07:08:15;;;;;;;5.20;4.70;;;;;;;20.21;47.47;96985.97;4981280;28;20483;-93
2022/12/04 07:10:42;;;;;;;5.40;4.90;;;;;;;20.13;47.36;96974.69;4993314;28;20226;-93
2022/12/04 07:13:09;;;;;;;5.30;4.80;;;;;;;19.89;47.27;96928.13;5007244;28;20215;-92
2022/12/04 07:15:35;;;;;;;6.27;5.13;;;;;;;19.13;47.35;96795.19;4997606;28;20214;-90
2022/12/04 07:18:03;;;;;;;6.07;5.17;;;;;;;18.91;47.39;96761.47;4976494;28;20221;-92
2022/12/04 07:20:29;;;;;;;5.30;4.80;;;;;;;19.59;47.03;96889.94;5009569;28;20231;-94
2022/12/04 07:22:56;;;;;;;5.13;4.63;;;;;;;19.29;47.30;96827.09;4992507;28;20250;-92
2022/12/04 07:25:28;;;;;;;5.23;4.67;;;;;;;20.28;47.53;96987.00;4983889;28;20221;-92
2022/12/04 07:27:55;;;;;;;5.23;4.70;;;;;;;19.40;47.44;96841.88;5008993;28;20224;-92
2022/12/04 07:30:22;;;;;;;5.40;4.77;;;;;;;19.65;47.40;96904.53;4975596;28;20238;-92
2022/12/04 07:32:48;;;;;;;5.00;4.50;;;;;;;19.53;47.48;96889.78;4977395;28;20192;-92
2022/12/04 07:35:15;;;;;;;5.43;4.93;;;;;;;19.86;47.30;96945.88;5008897;28;20250;-92
2022/12/04 07:37:41;;;;;;;4.57;4.17;;;;;;;19.43;47.58;96899.69;5009115;28;20182;-92
2022/12/04 07:40:08;;;;;;;5.40;4.90;;;;;;;20.02;47.33;96989.69;4991697;28;20187;-93
2022/12/04 07:42:35;;;;;;;4.50;4.10;;;;;;;18.94;47.44;96813.34;4992635;28;20179;-92
2022/12/04 07:45:01;;;;;;;4.77;4.37;;;;;;;20.09;47.42;96989.84;5007728;28;20201;-92
2022/12/04 07:47:28;;;;;;;4.97;4.47;;;;;;;19.36;47.11;96859.56;4992150;28;20182;-93
2022/12/04 07:49:54;;;;;;;5.07;4.63;;;;;;;19.88;47.29;96955.31;4991862;28;20202;-92
2022/12/04 07:52:21;;;;;;;5.10;4.60;;;;;;;19.75;47.33;96937.09;4992646;28;20206;-93
2022/12/04 07:54:48;;;;;;;5.30;4.77;;;;;;;19.89;47.36;96963.81;4992556;28;20203;-92
2022/12/04 07:57:14;;;;;;;5.33;4.83;;;;;;;19.02;47.43;96827.19;4995354;28;20207;-92
2022/12/04 07:59:41;;;;;;;4.67;4.27;;;;;;;18.95;47.64;96814.22;5004800;28;20561;-91
2022/12/04 08:02:07;;;;;;;5.53;4.90;;;;;;;19.33;47.63;96896.00;4995386;28;20214;-92
2022/12/04 08:04:35;;;;;;;5.10;4.60;;;;;;;19.39;47.24;96903.81;4989020;28;20259;-92
2022/12/04 08:07:02;;;;;;;5.03;4.53;;;;;;;20.18;47.27;97038.59;4980720;28;20199;-92
2022/12/04 08:09:28;;;;;;;4.77;4.30;;;;;;;19.86;47.53;96963.72;5004919;28;20255;-92
2022/12/04 08:11:55;;;;;;;4.90;4.50;;;;;;;19.87;47.03;96973.13;5005744;28;20276;-92
2022/12/04 08:14:22;;;;;;;4.33;3.97;;;;;;;19.60;47.56;96906.94;4977944;28;20179;-92
2022/12/04 08:16:48;;;;;;;4.87;4.47;;;;;;;20.38;47.66;97040.88;4974215;28;20200;-92
2022/12/04 08:19:18;;;;;;;5.20;4.60;;;;;;;18.79;47.34;96762.00;4979834;28;20180;-92
2022/12/04 08:21:45;;;;;;;4.80;4.40;;;;;;;20.11;47.83;96983.97;4990157;28;20219;-92
2022/12/04 08:24:11;;;;;;;4.97;4.50;;;;;;;20.12;47.37;96977.16;4980049;28;20191;-92
2022/12/04 08:26:38;;;;;;;4.60;4.20;;;;;;;19.60;46.92;96880.63;4991190;28;20248;-92
2022/12/04 08:29:04;;;;;;;5.30;4.80;;;;;;;19.23;47.26;96806.50;5005595;28;20211;-93
2022/12/04 08:31:32;;;;;;;5.30;4.80;;;;;;;19.42;47.19;96836.81;4977932;28;20234;-91
2022/12/04 08:34:00;;;;;;;5.23;4.73;;;;;;;19.91;47.28;96932.44;4989748;28;20191;-92
2022/12/04 08:36:27;;;;;;;5.27;4.77;;;;;;;19.43;47.36;96857.22;4993960;28;20214;-92
2022/12/04 08:38:54;;;;;;;5.10;4.60;;;;;;;19.08;47.19;96783.19;4983896;28;20188;-92
2022/12/04 08:41:22;;;;;;;4.90;4.40;;;;;;;19.16;47.41;96812.28;4991207;28;20223;-92
2022/12/04 08:43:49;;;;;;;5.37;4.87;;;;;;;20.20;47.42;96989.34;4989207;28;20187;-92
2022/12/04 08:46:17;;;;;;;5.03;4.53;;;;;;;18.93;47.66;96795.50;5007435;28;20211;-92
2022/12/04 08:48:43;;;;;;;5.20;4.70;;;;;;;19.28;47.60;96855.94;4989782;28;20175;-92
2022/12/04 08:51:21;;;;;;;5.43;4.60;;;;;;;19.62;47.41;96922.28;4989832;28;20222;-92
2022/12/04 08:53:50;;;;;;;5.03;4.53;;;;;;;19.99;47.54;96988.75;4990786;28;20211;-92
2022/12/04 08:56:17;;;;;;;4.93;4.53;;;;;;;20.19;47.48;97028.44;5007808;28;20219;-92
2022/12/04 08:58:44;;;;;;;4.90;4.50;;;;;;;19.61;47.39;96910.38;4975117;28;20184;-92
2022/12/04 09:01:11;;;;;;;5.00;4.50;;;;;;;19.89;47.55;96953.63;4990046;28;20215;-91
2022/12/04 09:03:38;;;;;;;4.60;4.20;;;;;;;19.06;47.63;96818.78;4976495;28;20200;-92
2022/12/04 09:06:05;;;;;;;4.40;4.00;;;;;;;19.28;47.46;96854.28;4974989;28;20191;-92
2022/12/04 09:08:32;;;;;;;4.70;4.30;;;;;;;19.99;47.53;96978.56;4991481;28;20226;-93
2022/12/04 09:11:08;;;;;;;4.70;4.30;;;;;;;19.61;47.44;96898.50;4994437;28;20200;-93
2022/12/04 09:13:35;;;;;;;4.70;4.30;;;;;;;19.62;47.32;96912.09;4994322;28;20226;-90
2022/12/04 09:16:03;;;;;;;5.23;4.73;;;;;;;20.14;47.51;96978.13;4965391;28;20207;-93
2022/12/04 09:18:30;;;;;;;5.13;4.63;;;;;;;19.80;47.50;96925.31;4994935;28;20209;-92
2022/12/04 09:20:57;;;;;;;5.10;4.70;;;;;;;19.55;47.61;96888.13;5011066;28;20219;-91
2022/12/04 09:23:24;;;;;;;4.83;4.37;;;;;;;19.74;47.38;96928.59;4975705;28;20208;-93
2022/12/04 09:25:51;;;;;;;4.50;4.10;;;;;;;19.92;47.54;96962.22;5012180;28;20262;-91
2022/12/04 09:28:17;;;;;;;4.70;4.30;;;;;;;20.11;47.44;96975.47;4989150;28;20210;-92
2022/12/04 09:30:44;;;;;;;5.20;4.70;;;;;;;19.19;47.34;96825.94;4995498;28;20223;-92
2022/12/04 09:33:11;;;;;;;4.37;3.97;;;;;;;20.12;47.37;96984.81;4991657;28;20218;-92
2022/12/04 09:35:38;;;;;;;4.87;4.47;;;;;;;19.75;47.50;96929.47;5012378;28;20226;-90
2022/12/04 09:38:04;;;;;;;4.90;4.50;;;;;;;19.89;47.54;96935.75;4964207;28;20188;-92
2022/12/04 09:40:45;;;;;;;4.17;3.87;;;;;;;19.93;47.39;96947.78;4995753;28;20226;-92
2022/12/04 09:43:34;;;;;;;4.77;4.37;;;;;;;19.47;47.41;96861.56;4967031;28;20207;-92
2022/12/04 09:46:10;;;;;;;5.13;4.63;;;;;;;19.16;47.37;96812.28;4991711;28;20191;-93
2022/12/04 09:48:39;;;;;;;4.67;4.27;;;;;;;19.73;47.52;96924.31;4980908;28;20184;-92
2022/12/04 09:51:05;;;;;;;5.00;4.57;;;;;;;19.45;47.88;96853.03;4978100;28;20230;-93
2022/12/04 09:53:42;;;;;;;4.70;4.30;;;;;;;19.74;47.52;96902.22;4997640;28;20247;-91
2022/12/04 09:56:10;;;;;;;5.00;4.50;;;;;;;20.10;47.68;96956.72;4978886;28;20215;-92
2022/12/04 09:58:48;;;;;;;5.30;4.80;;;;;;;19.91;47.51;96914.59;4977501;28;20211;-92
2022/12/04 10:01:27;;;;;;;4.90;4.47;;;;;;;19.25;47.32;96785.38;4993002;28;20230;-92
2022/12/04 10:03:54;;;;;;;4.63;4.23;;;;;;;19.66;47.51;96850.19;4978826;28;20202;-93
2022/12/04 10:06:42;;;;;;;4.60;4.13;;;;;;;19.46;47.32;96820.78;4975084;28;20255;-92
2022/12/04 10:09:30;;;;;;;4.70;4.30;;;;;;;20.30;47.17;96954.72;4995655;28;20183;-92
2022/12/04 10:12:05;;;;;;;4.87;4.47;;;;;;;20.37;47.37;96957.44;4987696;28;20227;-92
2022/12/04 10:14:43;;;;;;;4.90;4.50;;;;;;;20.38;47.31;96960.88;5010482;28;20205;-92
2022/12/04 10:17:31;;;;;;;4.40;4.00;;;;;;;20.37;47.55;96960.00;4993779;28;20548;-92
2022/12/04 10:20:15;;;;;;;4.87;4.47;;;;;;;20.37;47.49;96961.72;5008292;28;20215;-92
2022/12/04 10:23:00;;;;;;;4.67;4.27;;;;;;;20.37;47.46;96949.78;4993997;28;20187;-92
2022/12/04 10:25:27;;;;;;;4.50;4.10;;;;;;;19.37;47.50;96780.63;5009940;28;20214;-92
2022/12/04 10:27:59;;;;;;;4.80;4.40;;;;;;;19.59;47.21;96826.22;4993196;28;20187;-90
2022/12/04 10:30:28;;;;;;;4.60;4.20;;;;;;;19.57;47.38;96820.22;4961052;28;20262;-92
2022/12/04 10:33:14;;;;;;;4.50;4.10;;;;;;;20.38;47.48;96976.19;4978252;28;20200;-92
2022/12/04 10:35:41;;;;;;;4.93;4.53;;;;;;;19.35;47.24;96786.50;4985264;28;20231;-91
2022/12/04 10:38:25;;;;;;;4.60;4.20;;;;;;;20.11;47.59;96921.88;4974657;28;20210;-92
2022/12/04 10:40:55;;;;;;;4.37;3.97;;;;;;;19.82;47.43;96867.59;4997129;28;20216;-91
2022/12/04 10:43:48;;;;;;;4.47;4.07;;;;;;;19.64;47.60;96829.75;4969260;28;20204;-92
2022/12/04 10:46:22;;;;;;;4.57;4.17;;;;;;;19.81;47.51;96876.91;4973703;28;20207;-91
2022/12/04 10:49:05;;;;;;;4.60;4.20;;;;;;;19.78;47.49;96865.81;5008233;28;20200;-92
2022/12/04 10:51:38;;;;;;;4.57;4.17;;;;;;;18.64;47.67;96672.53;4981105;28;20274;-91
2022/12/04 10:54:32;;;;;;;4.13;3.77;;;;;;;20.37;47.42;96961.72;4980559;28;20384;-92
2022/12/04 10:57:00;;;;;;;4.47;4.07;;;;;;;19.91;47.64;96878.91;4991891;28;20222;-92
2022/12/04 10:59:26;;;;;;;4.40;4.00;;;;;;;20.16;47.69;96933.94;4988397;28;20231;-92
2022/12/04 11:02:04;;;;;;;4.70;4.30;;;;;;;19.15;47.55;96747.72;4992487;28;20214;-91
2022/12/04 11:04:33;;;;;;;4.60;4.20;;;;;;;19.80;47.76;96853.94;4960852;28;20192;-92
2022/12/04 11:07:15;;;;;;;4.70;4.30;;;;;;;19.19;47.65;96741.03;4994987;28;20231;-91
2022/12/04 11:09:41;;;;;;;4.30;3.90;;;;;;;20.09;47.64;96896.34;4979183;28;20251;-92
2022/12/04 11:12:16;;;;;;;4.70;4.30;;;;;;;19.14;47.51;96720.53;4974979;28;20227;-91
2022/12/04 11:14:43;;;;;;;4.83;4.20;;;;;;;19.26;47.45;96738.69;4979298;28;20206;-92
2022/12/04 11:17:17;;;;;;;4.40;4.00;;;;;;;19.57;47.30;96776.88;4993527;28;20234;-91
2022/12/04 11:19:44;;;;;;;4.00;3.70;;;;;;;20.10;47.40;96854.69;4963567;28;20223;-92
2022/12/04 11:22:10;;;;;;;4.30;3.90;;;;;;;20.36;47.45;96902.16;4991430;28;20226;-92
2022/12/04 11:24:37;;;;;;;4.13;3.77;;;;;;;19.34;47.51;96724.50;5011012;28;20183;-92
2022/12/04 11:27:03;;;;;;;3.87;3.57;;;;;;;18.91;47.48;96626.56;4959569;28;20342;-93
2022/12/04 11:29:32;;;;;;;4.47;4.07;;;;;;;19.59;47.19;96736.16;5004059;28;20220;-92
2022/12/04 11:31:59;;;;;;;4.33;3.93;;;;;;;20.08;47.25;96833.41;4976781;28;20230;-92
2022/12/04 11:34:35;;;;;;;4.00;3.70;;;;;;;19.80;47.58;96802.94;4994582;28;20191;-92
2022/12/04 11:37:01;;;;;;;3.90;3.57;;;;;;;19.07;47.78;96666.88;4979330;28;20290;-92
2022/12/04 11:39:28;;;;;;;4.03;3.73;;;;;;;20.37;47.59;96888.56;4998013;28;20198;-93
2022/12/04 11:42:12;;;;;;;4.03;3.67;;;;;;;19.81;47.53;96805.53;5007828;28;20215;-92
2022/12/04 11:44:47;;;;;;;4.10;3.80;;;;;;;19.50;47.49;96764.81;4991847;28;20203;-91
2022/12/04 11:47:18;;;;;;;4.33;3.93;;;;;;;19.33;47.30;96715.13;4975118;28;20190;-91
2022/12/04 11:49:45;;;;;;;3.70;3.40;;;;;;;19.81;47.55;96794.50;4991549;28;20197;-93
2022/12/04 11:52:30;;;;;;;4.23;3.83;;;;;;;19.94;47.68;96822.88;4976715;28;20204;-92
2022/12/04 11:55:07;;;;;;;4.20;3.80;;;;;;;19.96;47.69;96839.06;4991651;28;20764;-92
2022/12/04 11:58:03;;;;;;;4.10;3.80;;;;;;;19.69;47.08;96784.00;4976518;28;20655;-92
2022/12/04 12:00:29;;;;;;;3.80;3.50;;;;;;;19.97;47.50;96829.72;4980022;28;20214;-92